logo
App data

Alien Shooter 2 Conscription

The Great War has begun! The world population capable of functioning is mobilized to serve in the army and the outcome depends on you!
Store | Hub | SteamDB | Site
Developer: Sigma Team Inc. Publisher: Sigma Team Inc.
Genre: Action, Indie, RPG
Languages: English, Russian
Tags: Indie (34), RPG (31), Action (19), Shooter (17), Singleplayer (16), Top-Down Shooter (11), Aliens (8), Gore (7), Isometric (5)
Category: Single-player, Steam Trading Cards
Release date: May 18, 2012
Price: $9.99
Old userscore: 81% Owners: 100,000 .. 200,000
Followers: 1,034
Peak concurrent players yesterday: 6
YouTube stats: 6 views and 0 comments for top 50 videos uploaded last week, 1 new videos uploaded yesterday.
Playtime total: 07:12 (average) 10:48 (median)

Steam Spy is still in beta, so expect major bugs.

Owners data:

Access restricted.

This feature is only available to users with special access rights. Sorry.

If you want to proceed, you need to register or log in first and then back Steam Spy on Patreon. Look for Indie or Pro pledge.

Don't forget to use the same email as on Steam Spy!

If you've recently backed Steam Spy on Patreon, please note, that it might take around 15 minutes for your access rights to sync. In most cases you'll need to re-login on Steam Spy too.

Audience in 2 weeks:

Access restricted.

This feature is only available to users with special access rights. Sorry.

If you want to proceed, you need to register or log in first and then back Steam Spy on Patreon. Look for Indie or Pro pledge.

Don't forget to use the same email as on Steam Spy!

If you've recently backed Steam Spy on Patreon, please note, that it might take around 15 minutes for your access rights to sync. In most cases you'll need to re-login on Steam Spy too.

Peak daily concurrent players:

CCU data courtesy of SteamDB. Used with permission.

Hourly concurrent players:

Daily Twitch stats:

Hourly Twitch stats:

Followers over time

Access restricted.

This feature is only available to users with special access rights. Sorry.

If you want to proceed, you need to register or log in first and then back Steam Spy on Patreon. Look for Indie or Pro pledge.

Don't forget to use the same email as on Steam Spy!

If you've recently backed Steam Spy on Patreon, please note, that it might take around 15 minutes for your access rights to sync. In most cases you'll need to re-login on Steam Spy too.

Views for top 50 videos on YouTube for this game:

Games similar to this one:

# Game Release date
Price
Score rank
(Userscore / Metascore)
Owners
Players
Playtime (Median)
1 Battle Bruise Apr 22, 2017 $0.99N/A (N/A)20,000 .. 50,0000%00:00 (00:00)
2 Noitu Love 2: Devolution Apr 23, 2012 $4.99N/A (N/A/80%)50,000 .. 100,0000%00:00 (00:00)
3 Blood Knights Nov 13, 2013 $9.99N/A (N/A)50,000 .. 100,0000%00:00 (00:00)
4 Droid Assault Jan 9, 2013 $9.99N/A (N/A)50,000 .. 100,0000%00:00 (00:00)
5 Wooden Sen'SeY Dec 5, 2013 $9.99N/A (N/A)20,000 .. 50,0000%00:00 (00:00)
6 Leisure Suit Larry in the Land of the Lounge Lizards: Reloaded Jun 27, 2013 N/AN/A (N/A)20,000 .. 50,0000%00:00 (00:00)
7 BloodRayne 2 (Legacy) Sep 14, 2006 N/AN/A (N/A/67%)50,000 .. 100,0000%00:00 (00:00)
8 Fist Puncher Jun 21, 2013 $9.99N/A (N/A/73%)20,000 .. 50,0000%00:00 (00:00)
9 Dark Sector Mar 24, 2009 $9.99N/A (N/A/66%)50,000 .. 100,0000%00:00 (00:00)
10 VelocityUltra Dec 12, 2013 $9.99N/A (N/A)20,000 .. 50,0000%00:00 (00:00)
11 Painkiller: Black Edition Jan 24, 2007 $9.99N/A (N/A)100,000 .. 200,0000%00:00 (00:00)
12 Flashback Oct 1, 2013 $9.99N/A (N/A)20,000 .. 50,0000%00:00 (00:00)
13 Devil May Cry 4 Dec 22, 2009 $19.99N/A (N/A/78%)200,000 .. 500,0000%00:00 (00:00)
14 Livelock Aug 30, 2016 $9.99N/A (N/A/73%)20,000 .. 50,0000%00:00 (00:00)
15 The First Templar - Steam Special Edition May 12, 2011 $9.99N/A (N/A/57%)100,000 .. 200,0000%00:00 (00:00)
16 Stick it to The Man! Dec 13, 2013 $7.99N/A (N/A/83%)20,000 .. 50,0000%00:00 (00:00)
17 A.R.E.S.: Extinction Agenda Jan 19, 2011 $4.99N/A (N/A/68%)50,000 .. 100,0000%00:00 (00:00)
18 Hot Tin Roof: The Cat That Wore A Fedora Feb 20, 2015 $14.99N/A (N/A/66%)50,000 .. 100,0000%00:00 (00:00)
19 Psichodelya Aug 8, 2014 N/AN/A (N/A)50,000 .. 100,0000%00:00 (00:00)
20 Woolfe - The Red Hood Diaries Mar 17, 2015 $9.99N/A (N/A/55%)100,000 .. 200,0000%00:00 (00:00)
21 Momodora III Jul 1, 2014 $1.99N/A (N/A)50,000 .. 100,0000%00:00 (00:00)
22 Stick 'Em Up 2: Paper Adventures Jul 27, 2015 $2.99N/A (N/A)0 .. 20,0000%00:00 (00:00)
23 Guns n Zombies Oct 30, 2014 $7.99N/A (N/A)100,000 .. 200,0000%00:00 (00:00)
24 Avoid - Sensory Overload Apr 8, 2014 $4.99N/A (N/A)20,000 .. 50,0000%00:00 (00:00)
25 MURI Dec 6, 2013 $4.99N/A (N/A)20,000 .. 50,0000%00:00 (00:00)
26 El Matador Apr 3, 2014 $3.99N/A (N/A/54%)20,000 .. 50,0000%00:00 (00:00)
27 Meltdown Jun 5, 2014 $6.99N/A (N/A)100,000 .. 200,0000%00:00 (00:00)
28 Collapse Apr 11, 2014 $19.99N/A (N/A)50,000 .. 100,0000%00:00 (00:00)
29 Ku: Shroud of the Morrigan Mar 17, 2014 $4.99N/A (N/A)20,000 .. 50,0000%00:00 (00:00)
30 Hive Jump Jan 18, 2017 $19.99N/A (N/A)50,000 .. 100,0000%00:00 (00:00)
31 Shadow Blade: Reload Aug 10, 2015 $9.99N/A (N/A/70%)20,000 .. 50,0000%00:00 (00:00)
32 MIND: Path to Thalamus Enhanced Edition Aug 5, 2014 $11.99N/A (N/A/75%)100,000 .. 200,0000%00:00 (00:00)
33 RIVE: Wreck, Hack, Die, Retry! Sep 13, 2016 $14.99N/A (N/A)100,000 .. 200,0000%00:00 (00:00)
34 Beyond Space Remastered Edition Jun 18, 2014 $4.99N/A (N/A)20,000 .. 50,0000%00:00 (00:00)
35 GIGANTIC ARMY Mar 6, 2014 $5.99N/A (N/A)50,000 .. 100,0000%00:00 (00:00)
36 Zombie Vikings Dec 7, 2015 $11.99N/A (N/A/74%)50,000 .. 100,0000%00:00 (00:00)
37 Toren May 11, 2015 $9.99N/A (N/A/57%)100,000 .. 200,0000%00:00 (00:00)
38 Armed with Wings: Rearmed Jun 1, 2017 $9.99N/A (N/A)20,000 .. 50,0000%00:00 (00:00)
39 Wickland Nov 14, 2014 $0.99N/A (N/A)50,000 .. 100,0000%00:00 (00:00)
40 Overlord: Fellowship of Evil Oct 19, 2015 $9.99N/A (N/A)50,000 .. 100,0000%00:00 (00:00)
41 Guns, Gore & Cannoli Apr 30, 2015 $9.99N/A (N/A/80%)100,000 .. 200,0000%00:00 (00:00)
42 The Way May 20, 2016 $14.99N/A (N/A/67%)100,000 .. 200,0000%00:00 (00:00)
43 FEIST Jul 23, 2015 $9.99N/A (N/A/65%)20,000 .. 50,0000%00:00 (00:00)
44 The Stalin Subway Sep 19, 2014 $3.99N/A (N/A)100,000 .. 200,0000%00:00 (00:00)
45 Robotex Nov 18, 2014 $4.99N/A (N/A)200,000 .. 500,0000%00:00 (00:00)
46 Jet Gunner Aug 4, 2014 $0.99N/A (N/A)200,000 .. 500,0000%00:00 (00:00)
47 I am Weapon: Revival Oct 23, 2015 $15.99N/A (N/A)50,000 .. 100,0000%00:00 (00:00)
48 Obludia Jul 18, 2014 $2.99N/A (N/A)20,000 .. 50,0000%00:00 (00:00)
49 Raptor: Call of The Shadows - 2015 Edition Feb 13, 2015 $4.99N/A (N/A)20,000 .. 50,0000%00:00 (00:00)
50 Odallus: The Dark Call Jul 15, 2015 $9.99N/A (N/A/80%)100,000 .. 200,0000%00:00 (00:00)
51 Flywrench Aug 24, 2015 $6.99N/A (N/A)0 .. 20,0000%00:00 (00:00)
52 Deadlings: Rotten Edition Nov 11, 2014 $3.99N/A (N/A)50,000 .. 100,0000%00:00 (00:00)
53 Unbox: Newbie's Adventure Sep 5, 2016 $19.99N/A (N/A/68%)20,000 .. 50,0000%00:00 (00:00)
54 TRON RUN/r Feb 16, 2016 $19.99N/A (N/A)20,000 .. 50,0000%00:00 (00:00)
55 Wonder Boy: The Dragon's Trap Jun 8, 2017 $19.99N/A (N/A)100,000 .. 200,0000%00:00 (00:00)
56 Toy Odyssey: The Lost and Found Sep 20, 2016 $14.99N/A (N/A/66%)20,000 .. 50,0000%00:00 (00:00)
57 Chronicles of Teddy Apr 2, 2015 $14.99N/A (N/A)20,000 .. 50,0000%00:00 (00:00)
58 Bleed 2 Feb 8, 2017 $9.99N/A (N/A/83%)50,000 .. 100,0000%00:00 (00:00)
59 David. Feb 16, 2015 $1.99N/A (N/A)100,000 .. 200,0000%00:00 (00:00)
60 Little Big Adventure - Enhanced Edition Oct 20, 2015 $5.99N/A (N/A)0 .. 20,0000%00:00 (00:00)
61 Planet of the Eyes Aug 24, 2015 $9.99N/A (N/A/66%)20,000 .. 50,0000%00:00 (00:00)
62 Little Big Adventure 2 Oct 20, 2015 $3.99N/A (N/A)0 .. 20,0000%00:00 (00:00)
63 Rad Rodgers: World One Dec 1, 2016 $19.99N/A (N/A/72%)0 .. 20,0000%00:00 (00:00)
64 12 is Better Than 6 Nov 20, 2015 $9.99N/A (N/A/74%)500,000 .. 1,000,0000%00:00 (00:00)
65 Spooky Cats Jun 4, 2015 $2.99N/A (N/A)20,000 .. 50,0000%00:00 (00:00)
66 Prison Run and Gun Mar 16, 2016 $4.99N/A (N/A)20,000 .. 50,0000%00:00 (00:00)
67 Anima Gate of Memories Jun 2, 2016 $5.99N/A (N/A)20,000 .. 50,0000%00:00 (00:00)
68 Mr. Shifty Apr 13, 2017 $14.99N/A (N/A)100,000 .. 200,0000%00:00 (00:00)
69 Vendetta - Curse of Raven's Cry Nov 20, 2015 $29.99N/A (N/A)200,000 .. 500,00011.11%00:44 (00:22)

Tags over time:

Access restricted.

This feature is only available to users with special access rights. Sorry.

If you want to proceed, you need to register or log in first and then back Steam Spy on Patreon. Look for Indie or Pro pledge.

Don't forget to use the same email as on Steam Spy!

If you've recently backed Steam Spy on Patreon, please note, that it might take around 15 minutes for your access rights to sync. In most cases you'll need to re-login on Steam Spy too.

Owners of this game also own:

Access restricted.

This feature is only available to users with special access rights. Sorry.

If you want to proceed, you need to register or log in first and then back Steam Spy on Patreon. Look for Indie or Pro pledge.

Don't forget to use the same email as on Steam Spy!

If you've recently backed Steam Spy on Patreon, please note, that it might take around 15 minutes for your access rights to sync. In most cases you'll need to re-login on Steam Spy too.

Playtime distribution:

Access restricted.

This feature is only available to users with special access rights. Sorry.

If you want to proceed, you need to register or log in first and then back Steam Spy on Patreon. Look for Indie or Pro pledge.

Don't forget to use the same email as on Steam Spy!

If you've recently backed Steam Spy on Patreon, please note, that it might take around 15 minutes for your access rights to sync. In most cases you'll need to re-login on Steam Spy too.

Playtime (2 weeks):

Access restricted.

This feature is only available to users with special access rights. Sorry.

If you want to proceed, you need to register or log in first and then back Steam Spy on Patreon. Look for Indie or Pro pledge.

Don't forget to use the same email as on Steam Spy!

If you've recently backed Steam Spy on Patreon, please note, that it might take around 15 minutes for your access rights to sync. In most cases you'll need to re-login on Steam Spy too.

User reviews:

Login required.

Please register or log in to see this information.